createdAt,value
2023-01-13T00:00:57.983Z,79.92
2023-01-13T00:03:28.136Z,79.63
2023-01-13T00:05:58.320Z,80.15
2023-01-13T00:08:28.497Z,80.11
2023-01-13T00:10:58.671Z,79.87
2023-01-13T00:13:33.729Z,80.10
2023-01-13T00:16:07.112Z,80.02
2023-01-13T00:18:38.160Z,79.92
2023-01-13T00:21:10.548Z,80.02
2023-01-13T00:23:41.110Z,80.43
2023-01-13T00:26:13.688Z,80.21
2023-01-13T00:28:46.450Z,80.19
2023-01-13T00:31:18.506Z,79.94
2023-01-13T00:33:49.118Z,80.25
2023-01-13T00:36:20.898Z,80.01
2023-01-13T00:38:51.634Z,80.26
2023-01-13T00:41:23.224Z,80.17
2023-01-13T00:43:53.666Z,80.13
2023-01-13T00:46:24.987Z,80.40
2023-01-13T00:48:55.162Z,80.11
2023-01-13T00:51:26.495Z,80.62
2023-01-13T00:53:56.643Z,80.92
2023-01-13T00:56:39.777Z,81.58
2023-01-13T00:59:14.458Z,80.80
2023-01-13T01:01:44.835Z,80.11
2023-01-13T01:04:15.269Z,80.06
2023-01-13T01:06:45.378Z,79.58
2023-01-13T01:09:17.182Z,79.68
2023-01-13T01:11:47.835Z,79.84
2023-01-13T01:14:20.631Z,80.09
2023-01-13T01:16:50.860Z,80.02
2023-01-13T01:19:21.400Z,79.90
2023-01-13T01:21:51.820Z,79.66
2023-01-13T01:24:22.046Z,80.17
2023-01-13T01:26:52.182Z,80.04
2023-01-13T01:29:25.056Z,79.92
2023-01-13T01:31:55.185Z,80.39
2023-01-13T01:34:25.329Z,79.85
2023-01-13T01:36:55.510Z,79.87
2023-01-13T01:39:25.688Z,79.87
2023-01-13T01:42:09.111Z,79.94
2023-01-13T01:45:13.786Z,79.92
2023-01-13T01:47:45.393Z,79.97
2023-01-13T01:50:17.869Z,80.49
2023-01-13T01:52:52.063Z,80.10
2023-01-13T01:55:23.236Z,80.21
2023-01-13T01:57:58.065Z,80.25
2023-01-13T02:00:31.882Z,80.67
2023-01-13T02:03:03.389Z,80.26
2023-01-13T02:05:34.474Z,80.67
2023-01-13T02:08:06.230Z,80.77
2023-01-13T02:10:36.503Z,80.55
2023-01-13T02:13:07.073Z,80.82
2023-01-13T02:15:46.028Z,80.89
2023-01-13T02:18:32.775Z,80.39
2023-01-13T02:21:22.435Z,80.43
2023-01-13T02:24:37.086Z,80.47
2023-01-13T02:27:45.888Z,80.68
2023-01-13T02:30:37.783Z,80.63
2023-01-13T02:33:29.888Z,80.22
2023-01-13T02:36:05.313Z,80.43
2023-01-13T02:38:40.096Z,80.42
2023-01-13T02:41:29.985Z,80.03
2023-01-13T02:44:10.677Z,80.21
2023-01-13T02:47:04.152Z,80.08
2023-01-13T02:49:40.423Z,79.97
2023-01-13T02:52:14.507Z,79.95
2023-01-13T02:54:50.732Z,80.29
2023-01-13T02:57:23.149Z,79.96
2023-01-13T02:59:55.906Z,80.10
2023-01-13T03:02:29.260Z,79.98
2023-01-13T03:05:01.544Z,79.85
2023-01-13T03:07:53.613Z,80.14
2023-01-13T03:10:35.130Z,80.01
2023-01-13T03:13:17.160Z,79.93
2023-01-13T03:15:57.566Z,80.00
2023-01-13T03:18:42.625Z,79.98
2023-01-13T03:21:22.651Z,79.69
2023-01-13T03:23:55.892Z,80.12
2023-01-13T03:26:34.893Z,80.08
2023-01-13T03:29:12.065Z,80.13
2023-01-13T03:31:47.924Z,80.29
2023-01-13T03:34:24.756Z,80.43
2023-01-13T03:36:58.664Z,80.13
2023-01-13T03:39:32.665Z,79.90
2023-01-13T03:42:04.435Z,80.04
2023-01-13T03:44:36.987Z,80.39
2023-01-13T03:47:15.710Z,80.02
2023-01-13T03:49:56.201Z,80.20
2023-01-13T03:52:31.898Z,80.58
2023-01-13T03:55:07.914Z,80.47
2023-01-13T03:57:44.817Z,80.59
2023-01-13T04:00:22.516Z,80.56
2023-01-13T04:02:57.079Z,80.49
2023-01-13T04:05:34.430Z,80.66
2023-01-13T04:08:11.852Z,80.50
2023-01-13T04:10:48.263Z,80.69
2023-01-13T04:13:23.026Z,80.37
2023-01-13T04:15:53.605Z,80.69
2023-01-13T04:18:26.369Z,80.13
2023-01-13T04:21:01.295Z,80.34
2023-01-13T04:23:32.761Z,80.38
2023-01-13T04:26:03.041Z,80.17
2023-01-13T04:28:33.661Z,80.42
2023-01-13T04:31:04.197Z,80.44
2023-01-13T04:33:34.476Z,80.49
2023-01-13T04:36:07.869Z,79.93
2023-01-13T04:38:38.099Z,79.95
2023-01-13T04:41:16.835Z,80.46
2023-01-13T04:43:47.012Z,80.25
2023-01-13T04:46:17.950Z,80.69
2023-01-13T04:48:48.463Z,81.24
2023-01-13T04:51:21.265Z,80.50
2023-01-13T04:53:52.412Z,80.57
2023-01-13T04:56:22.557Z,80.33
2023-01-13T04:58:53.018Z,80.26
2023-01-13T05:01:23.538Z,80.50
2023-01-13T05:03:56.996Z,80.25
2023-01-13T05:06:29.858Z,79.85
2023-01-13T05:09:00.144Z,79.81
2023-01-13T05:11:42.677Z,79.69
2023-01-13T05:14:25.324Z,80.27
2023-01-13T05:17:03.769Z,80.39
2023-01-13T05:19:36.839Z,80.38
2023-01-13T05:22:37.112Z,80.28
2023-01-13T05:25:20.698Z,80.62
2023-01-13T05:27:51.292Z,80.37
2023-01-13T05:30:25.126Z,80.22
2023-01-13T05:32:55.504Z,80.49
2023-01-13T05:35:25.883Z,80.21
2023-01-13T05:37:59.136Z,80.56
2023-01-13T05:40:41.731Z,80.71
2023-01-13T05:43:24.902Z,80.55
2023-01-13T05:45:59.688Z,80.40
2023-01-13T05:48:32.002Z,80.41
2023-01-13T05:51:02.347Z,80.33
2023-01-13T05:53:36.074Z,80.18
2023-01-13T05:56:07.617Z,80.67
2023-01-13T05:58:38.239Z,80.60
2023-01-13T06:01:10.679Z,80.76
2023-01-13T06:03:44.147Z,80.77
2023-01-13T06:06:14.344Z,80.34
2023-01-13T06:08:47.104Z,80.72
2023-01-13T06:11:17.292Z,80.67
2023-01-13T06:13:47.402Z,80.47
2023-01-13T06:16:17.630Z,80.75
2023-01-13T06:18:47.826Z,80.20
2023-01-13T06:21:18.183Z,80.58
2023-01-13T06:23:53.202Z,80.95
2023-01-13T06:26:27.862Z,80.98
2023-01-13T06:28:58.092Z,80.47
2023-01-13T06:31:31.741Z,80.65
2023-01-13T06:34:07.436Z,80.69
2023-01-13T06:36:41.563Z,80.71
2023-01-13T06:39:19.240Z,80.35
2023-01-13T06:42:03.697Z,80.37
2023-01-13T06:44:33.943Z,80.27
2023-01-13T06:47:04.098Z,80.35
2023-01-13T06:49:34.349Z,80.67
2023-01-13T06:52:04.544Z,80.96
2023-01-13T06:54:37.527Z,80.80
2023-01-13T06:57:07.732Z,80.86
2023-01-13T06:59:37.995Z,80.74
2023-01-13T07:02:08.477Z,80.90
2023-01-13T07:04:38.774Z,81.15
2023-01-13T07:07:16.072Z,80.89
2023-01-13T07:09:48.970Z,80.59
2023-01-13T07:12:19.225Z,80.63
2023-01-13T07:15:01.877Z,80.32
2023-01-13T07:17:32.657Z,80.68
2023-01-13T07:20:02.878Z,80.56
2023-01-13T07:22:33.603Z,80.57
2023-01-13T07:25:06.812Z,80.36
2023-01-13T07:27:39.520Z,80.23
2023-01-13T07:30:14.219Z,80.46
2023-01-13T07:32:44.668Z,80.18
2023-01-13T07:35:14.839Z,80.09
2023-01-13T07:37:47.695Z,79.69
2023-01-13T07:40:20.974Z,79.17
2023-01-13T07:43:03.591Z,79.34
2023-01-13T07:45:33.790Z,79.31
2023-01-13T07:48:03.968Z,79.22
2023-01-13T07:50:34.626Z,79.74
2023-01-13T07:53:04.829Z,80.14
2023-01-13T07:55:37.742Z,79.45
2023-01-13T07:58:09.467Z,79.27
2023-01-13T08:00:39.762Z,79.25
2023-01-13T08:03:10.006Z,79.23
2023-01-13T08:05:40.232Z,79.55
2023-01-13T08:08:10.465Z,79.26
2023-01-13T08:10:43.294Z,79.11
2023-01-13T08:13:22.648Z,79.20
2023-01-13T08:15:55.135Z,78.90
2023-01-13T08:18:25.523Z,78.86
2023-01-13T08:20:56.303Z,79.08
2023-01-13T08:23:26.665Z,78.56
2023-01-13T08:26:03.141Z,78.33
2023-01-13T08:28:34.124Z,78.45
2023-01-13T08:31:05.425Z,78.31
2023-01-13T08:33:36.486Z,78.42
2023-01-13T08:36:08.013Z,78.29
2023-01-13T08:38:38.705Z,77.45
2023-01-13T08:41:37.145Z,78.17
2023-01-13T08:44:09.457Z,78.47
2023-01-13T08:46:40.132Z,77.94
2023-01-13T08:49:10.367Z,77.57
2023-01-13T08:51:40.968Z,77.86
2023-01-13T08:54:11.278Z,76.88
2023-01-13T08:56:44.446Z,77.19
2023-01-13T08:59:15.544Z,77.14
2023-01-13T09:01:45.965Z,77.20
2023-01-13T09:04:20.287Z,77.26
2023-01-13T09:06:50.882Z,77.01
2023-01-13T09:09:21.196Z,77.38
2023-01-13T09:12:07.021Z,77.29
2023-01-13T09:14:39.476Z,76.86
2023-01-13T09:17:10.365Z,76.75
2023-01-13T09:19:41.054Z,77.09
2023-01-13T09:22:16.856Z,77.66
2023-01-13T09:24:47.640Z,77.41
2023-01-13T09:27:20.896Z,77.64
2023-01-13T09:29:51.301Z,78.11
2023-01-13T09:32:21.441Z,77.87
2023-01-13T09:35:00.844Z,76.92
2023-01-13T09:37:34.190Z,76.66
2023-01-13T09:40:05.413Z,77.14
2023-01-13T09:43:02.122Z,76.96
2023-01-13T09:45:37.915Z,76.75
2023-01-13T09:48:16.037Z,77.32
2023-01-13T09:51:06.277Z,77.08
2023-01-13T09:53:41.806Z,76.89
2023-01-13T09:56:13.657Z,75.33
2023-01-13T09:58:48.349Z,76.22
2023-01-13T10:01:27.002Z,76.97
2023-01-13T10:03:57.617Z,77.04
2023-01-13T10:06:36.268Z,77.29
2023-01-13T10:09:06.661Z,76.55
2023-01-13T10:11:55.116Z,75.73
2023-01-13T10:14:33.844Z,76.11
2023-01-13T10:17:14.873Z,76.13
2023-01-13T10:19:49.326Z,77.17
2023-01-13T10:22:32.380Z,76.60
2023-01-13T10:25:25.236Z,76.16
2023-01-13T10:27:58.474Z,76.39
2023-01-13T10:30:40.177Z,76.21
2023-01-13T10:33:14.611Z,77.02
2023-01-13T10:35:59.979Z,77.21
2023-01-13T10:38:32.969Z,77.47
2023-01-13T10:41:05.059Z,77.11
2023-01-13T10:43:36.018Z,77.31
2023-01-13T10:46:13.040Z,77.17
2023-01-13T10:48:45.236Z,76.86
2023-01-13T10:51:27.847Z,76.39
2023-01-13T10:54:01.396Z,76.34
2023-01-13T10:56:34.341Z,76.19
2023-01-13T10:59:19.181Z,76.21
2023-01-13T11:02:13.180Z,76.55
2023-01-13T11:05:12.356Z,76.47
2023-01-13T11:07:44.455Z,76.14
2023-01-13T11:10:23.762Z,75.87
2023-01-13T11:13:01.865Z,75.40
2023-01-13T11:15:43.784Z,75.39
2023-01-13T11:18:25.099Z,74.94
2023-01-13T11:20:58.656Z,74.57
2023-01-13T11:23:35.058Z,74.99
2023-01-13T11:26:12.348Z,74.63
2023-01-13T11:28:53.205Z,74.97
2023-01-13T11:31:30.155Z,74.24
2023-01-13T11:34:10.829Z,74.72
2023-01-13T11:36:43.250Z,74.59
2023-01-13T11:39:32.203Z,74.73
2023-01-13T11:42:18.517Z,75.00
2023-01-13T11:44:56.718Z,74.26
2023-01-13T11:47:29.046Z,74.99
2023-01-13T11:50:02.462Z,74.49
2023-01-13T11:52:49.421Z,74.60
2023-01-13T11:55:38.169Z,74.87
2023-01-13T11:58:41.940Z,74.38
2023-01-13T12:01:41.190Z,74.13
2023-01-13T12:04:27.110Z,74.23
2023-01-13T12:07:16.426Z,74.97
2023-01-13T12:10:00.778Z,75.14
2023-01-13T12:12:45.219Z,74.71
2023-01-13T12:15:31.346Z,74.49
2023-01-13T12:18:17.310Z,74.38
2023-01-13T12:21:00.136Z,74.36
2023-01-13T12:23:38.503Z,74.51
2023-01-13T12:26:11.099Z,74.74
2023-01-13T12:28:49.676Z,74.72
2023-01-13T12:31:21.789Z,75.21
2023-01-13T12:34:13.862Z,74.65
2023-01-13T12:36:58.949Z,75.44
2023-01-13T12:39:41.491Z,75.41
2023-01-13T12:42:30.543Z,74.75
2023-01-13T12:45:27.132Z,74.54
2023-01-13T12:47:58.536Z,74.68
2023-01-13T12:50:46.394Z,74.63
2023-01-13T12:53:39.162Z,74.52
2023-01-13T12:56:45.201Z,75.22
2023-01-13T12:59:37.458Z,75.33
2023-01-13T13:02:35.302Z,75.63
2023-01-13T13:05:48.018Z,76.00
2023-01-13T13:08:25.509Z,75.88
2023-01-13T13:11:04.556Z,76.00
2023-01-13T13:13:47.538Z,75.67
2023-01-13T13:16:47.225Z,76.06
2023-01-13T13:19:48.050Z,76.58
2023-01-13T13:22:45.327Z,76.41
2023-01-13T13:25:29.175Z,76.45
2023-01-13T13:28:24.617Z,76.75
2023-01-13T13:31:20.187Z,76.33
2023-01-13T13:34:02.799Z,76.15
2023-01-13T13:37:10.543Z,76.77
2023-01-13T13:39:58.791Z,76.90
2023-01-13T13:42:52.278Z,76.48
2023-01-13T13:45:41.013Z,77.34
2023-01-13T13:48:31.162Z,77.75
2023-01-13T13:51:04.302Z,77.66
2023-01-13T13:53:39.769Z,77.26
2023-01-13T13:56:20.428Z,77.61
2023-01-13T13:58:52.490Z,77.53
2023-01-13T14:01:27.991Z,77.35
2023-01-13T14:04:18.252Z,77.02
2023-01-13T14:06:57.082Z,77.56
2023-01-13T14:09:29.764Z,77.13
2023-01-13T14:12:02.715Z,77.36
2023-01-13T14:14:33.172Z,77.00
2023-01-13T14:17:07.753Z,76.75
2023-01-13T14:19:45.817Z,76.63
2023-01-13T14:22:19.224Z,77.10
2023-01-13T14:24:55.566Z,77.08
2023-01-13T14:27:27.713Z,76.78
2023-01-13T14:29:59.377Z,77.02
2023-01-13T14:32:35.432Z,76.84
2023-01-13T14:35:08.984Z,76.73
2023-01-13T14:37:45.364Z,76.91
2023-01-13T14:40:51.240Z,76.89
2023-01-13T14:43:24.465Z,76.64
2023-01-13T14:46:03.345Z,77.05
2023-01-13T14:48:38.869Z,77.32
2023-01-13T14:51:15.626Z,77.31
2023-01-13T14:53:49.033Z,77.47
2023-01-13T14:56:47.801Z,77.47
2023-01-13T14:59:36.740Z,77.55
2023-01-13T15:02:40.000Z,77.89
2023-01-13T15:05:47.815Z,77.89
2023-01-13T15:08:30.223Z,77.84
2023-01-13T15:11:02.698Z,77.78
2023-01-13T15:13:37.010Z,77.49
2023-01-13T15:16:09.691Z,77.92
2023-01-13T15:18:41.323Z,78.14
2023-01-13T15:21:12.133Z,77.74
2023-01-13T15:23:47.357Z,78.01
2023-01-13T15:26:21.989Z,78.40
2023-01-13T15:28:53.898Z,78.60
2023-01-13T15:31:25.084Z,79.14
2023-01-13T15:33:55.347Z,79.23
2023-01-13T15:36:28.909Z,79.26
2023-01-13T15:39:03.647Z,79.59
2023-01-13T15:41:46.212Z,79.29
2023-01-13T15:44:30.025Z,79.16
2023-01-13T15:47:01.901Z,79.26
2023-01-13T15:49:36.282Z,79.71
2023-01-13T15:52:07.833Z,79.50
2023-01-13T15:54:40.845Z,80.10
2023-01-13T15:57:14.692Z,79.75
2023-01-13T15:59:50.266Z,79.85
2023-01-13T16:02:22.733Z,79.30
2023-01-13T16:04:54.134Z,79.18
2023-01-13T16:07:26.564Z,79.00
2023-01-13T16:10:01.885Z,79.08
2023-01-13T16:12:32.402Z,79.21
2023-01-13T16:15:02.767Z,78.67
2023-01-13T16:17:36.205Z,78.72
2023-01-13T16:20:09.513Z,78.45
2023-01-13T16:22:45.353Z,78.68
2023-01-13T16:25:22.449Z,79.09
2023-01-13T16:27:53.317Z,79.56
2023-01-13T16:30:29.832Z,79.25
2023-01-13T16:33:00.598Z,79.31
2023-01-13T16:35:32.037Z,79.04
2023-01-13T16:38:02.563Z,78.96
2023-01-13T16:40:39.492Z,78.98
2023-01-13T16:43:09.805Z,78.91
2023-01-13T16:45:40.080Z,78.93
2023-01-13T16:48:14.882Z,78.95
2023-01-13T16:50:45.801Z,79.34
2023-01-13T16:53:16.380Z,79.01
2023-01-13T16:55:49.243Z,79.40
2023-01-13T16:58:21.698Z,79.51
2023-01-13T17:00:53.150Z,79.50
2023-01-13T17:03:23.402Z,79.12
2023-01-13T17:05:56.629Z,79.25
2023-01-13T17:08:27.043Z,79.26
2023-01-13T17:11:00.351Z,79.35
2023-01-13T17:13:30.559Z,79.13
2023-01-13T17:16:00.858Z,79.07
2023-01-13T17:18:31.136Z,78.90
2023-01-13T17:21:02.463Z,78.52
2023-01-13T17:23:33.568Z,78.74
2023-01-13T17:26:06.537Z,79.28
2023-01-13T17:28:36.757Z,79.82
2023-01-13T17:31:07.709Z,79.60
2023-01-13T17:33:38.301Z,79.71
2023-01-13T17:36:09.423Z,79.25
2023-01-13T17:38:39.599Z,78.67
2023-01-13T17:41:12.705Z,79.29
2023-01-13T17:43:43.111Z,79.60
2023-01-13T17:46:16.643Z,79.71
2023-01-13T17:48:47.011Z,79.24
2023-01-13T17:51:19.765Z,79.35
2023-01-13T17:53:49.972Z,79.45
2023-01-13T17:56:24.816Z,79.42
2023-01-13T17:58:55.094Z,79.38
2023-01-13T18:01:26.813Z,79.31
2023-01-13T18:03:57.300Z,79.52
2023-01-13T18:06:27.715Z,79.30
2023-01-13T18:08:58.364Z,79.26
2023-01-13T18:11:31.770Z,79.40
2023-01-13T18:14:02.061Z,79.45
2023-01-13T18:16:34.221Z,79.40
2023-01-13T18:19:17.526Z,78.88
2023-01-13T18:22:00.646Z,78.95
2023-01-13T18:24:43.367Z,79.06
2023-01-13T18:27:23.192Z,79.36
2023-01-13T18:29:56.889Z,79.13
2023-01-13T18:32:32.811Z,79.07
2023-01-13T18:35:06.826Z,78.90
2023-01-13T18:37:38.859Z,79.20
2023-01-13T18:40:14.471Z,78.75
2023-01-13T18:42:55.128Z,79.11
2023-01-13T18:45:27.462Z,79.30
2023-01-13T18:47:59.550Z,79.32
2023-01-13T18:50:30.532Z,79.03
2023-01-13T18:53:01.269Z,79.14
2023-01-13T18:55:31.771Z,78.86
2023-01-13T18:58:06.348Z,78.84
2023-01-13T19:00:38.710Z,79.23
2023-01-13T19:03:09.157Z,78.80
2023-01-13T19:05:41.865Z,78.79
2023-01-13T19:08:12.103Z,78.93
2023-01-13T19:10:42.649Z,79.05
2023-01-13T19:13:16.871Z,78.75
2023-01-13T19:15:47.186Z,79.31
2023-01-13T19:18:17.417Z,79.17
2023-01-13T19:20:47.618Z,78.87
2023-01-13T19:23:18.199Z,77.83
2023-01-13T19:25:48.405Z,77.83
2023-01-13T19:28:22.129Z,77.63
2023-01-13T19:30:54.208Z,77.85
2023-01-13T19:33:24.601Z,77.79
2023-01-13T19:35:56.929Z,78.08
2023-01-13T19:38:31.101Z,77.71
2023-01-13T19:41:05.981Z,77.79
2023-01-13T19:43:51.579Z,77.73
2023-01-13T19:46:21.868Z,77.62
2023-01-13T19:48:52.277Z,77.85
2023-01-13T19:51:22.513Z,78.30
2023-01-13T19:53:55.758Z,79.05
2023-01-13T19:56:30.629Z,78.70
2023-01-13T19:59:03.898Z,78.94
2023-01-13T20:01:37.757Z,79.23
2023-01-13T20:04:14.422Z,79.21
2023-01-13T20:06:46.660Z,79.24
2023-01-13T20:09:17.285Z,79.32
2023-01-13T20:11:48.305Z,79.39
2023-01-13T20:14:21.573Z,79.36
2023-01-13T20:16:51.901Z,78.31
2023-01-13T20:19:22.377Z,78.87
2023-01-13T20:21:52.684Z,79.07
2023-01-13T20:24:24.807Z,79.09
2023-01-13T20:26:57.501Z,79.28
2023-01-13T20:29:30.750Z,79.21
2023-01-13T20:32:01.321Z,78.95
2023-01-13T20:34:32.067Z,79.08
2023-01-13T20:37:02.355Z,79.24
2023-01-13T20:39:33.587Z,79.57
2023-01-13T20:42:16.187Z,79.55
2023-01-13T20:44:49.759Z,79.56
2023-01-13T20:47:21.446Z,79.85
2023-01-13T20:49:52.121Z,79.75
2023-01-13T20:52:23.112Z,79.70
2023-01-13T20:54:53.928Z,79.71
2023-01-13T20:57:24.195Z,79.90
2023-01-13T20:59:59.411Z,79.55
2023-01-13T21:02:32.916Z,79.11
2023-01-13T21:05:03.042Z,78.66
2023-01-13T21:07:33.242Z,79.07
2023-01-13T21:10:03.975Z,78.81
2023-01-13T21:12:48.472Z,79.61
2023-01-13T21:15:22.277Z,79.56
2023-01-13T21:18:06.718Z,79.01
2023-01-13T21:20:37.216Z,79.04
2023-01-13T21:23:07.944Z,79.03
2023-01-13T21:25:40.468Z,78.88
2023-01-13T21:28:12.382Z,78.78
2023-01-13T21:30:46.897Z,78.80
2023-01-13T21:33:17.250Z,78.57
2023-01-13T21:35:47.476Z,79.02
2023-01-13T21:38:17.685Z,78.72
2023-01-13T21:40:48.247Z,79.02
2023-01-13T21:43:30.971Z,79.40
2023-01-13T21:46:16.432Z,79.50
2023-01-13T21:48:46.699Z,79.75
2023-01-13T21:51:16.968Z,79.81
2023-01-13T21:53:47.107Z,80.13
2023-01-13T21:56:17.428Z,80.07
2023-01-13T21:58:47.790Z,80.25
2023-01-13T22:01:21.158Z,80.32
2023-01-13T22:04:04.075Z,80.30
2023-01-13T22:06:34.396Z,79.75
2023-01-13T22:09:04.655Z,80.19
2023-01-13T22:11:35.154Z,80.24
2023-01-13T22:14:13.781Z,80.26
2023-01-13T22:16:49.807Z,79.50
2023-01-13T22:19:22.438Z,78.79
2023-01-13T22:21:54.813Z,78.31
2023-01-13T22:24:25.418Z,79.16
2023-01-13T22:26:55.639Z,79.29
2023-01-13T22:29:25.917Z,79.62
2023-01-13T22:31:58.778Z,79.97
2023-01-13T22:34:31.787Z,79.93
2023-01-13T22:37:05.472Z,79.97
2023-01-13T22:39:36.104Z,80.43
2023-01-13T22:42:07.063Z,80.33
2023-01-13T22:44:37.397Z,80.40
2023-01-13T22:47:10.287Z,80.57
2023-01-13T22:49:42.215Z,80.54
2023-01-13T22:52:12.934Z,80.55
2023-01-13T22:54:44.468Z,80.48
2023-01-13T22:57:14.737Z,80.73
2023-01-13T22:59:46.703Z,80.75
2023-01-13T23:02:19.533Z,80.96
2023-01-13T23:04:50.645Z,80.94
2023-01-13T23:07:20.897Z,80.58
2023-01-13T23:09:53.249Z,80.93
2023-01-13T23:12:23.404Z,80.92
2023-01-13T23:14:54.686Z,81.09
2023-01-13T23:17:27.542Z,81.02
2023-01-13T23:19:58.041Z,81.06
2023-01-13T23:22:28.367Z,81.08
2023-01-13T23:24:58.471Z,81.31
2023-01-13T23:27:28.632Z,81.11
2023-01-13T23:29:59.056Z,80.47
2023-01-13T23:32:32.327Z,80.66
2023-01-13T23:35:02.548Z,80.97
2023-01-13T23:37:34.390Z,80.24
2023-01-13T23:40:05.318Z,80.61
2023-01-13T23:42:36.262Z,80.36
2023-01-13T23:45:07.280Z,80.37
2023-01-13T23:47:40.089Z,80.13
2023-01-13T23:50:12.218Z,80.22
2023-01-13T23:52:45.479Z,80.16
2023-01-13T23:55:15.809Z,79.66
2023-01-13T23:57:46.415Z,79.65
